sensor_id;sensor_type;location;lat;lon;timestamp;pressure;altitude;pressure_sealevel;temperature;humidity
78073;BME280;67281;48.770;11.440;2024-02-15T00:02:37;97721.28;;;16.72;50.56
78073;BME280;67281;48.770;11.440;2024-02-15T00:05:52;97720.44;;;16.72;50.74
78073;BME280;67281;48.770;11.440;2024-02-15T00:08:23;97724.63;;;16.74;50.53
78073;BME280;67281;48.770;11.440;2024-02-15T00:14:26;97734.38;;;16.74;50.58
78073;BME280;67281;48.770;11.440;2024-02-15T00:17:00;97733.53;;;16.73;50.66
78073;BME280;67281;48.770;11.440;2024-02-15T00:19:32;97723.78;;;16.74;50.92
78073;BME280;67281;48.770;11.440;2024-02-15T00:22:07;97732.69;;;16.73;50.88
78073;BME280;67281;48.770;11.440;2024-02-15T00:24:56;97745.94;;;16.73;50.62
78073;BME280;67281;48.770;11.440;2024-02-15T00:27:27;97742.44;;;16.72;50.89
78073;BME280;67281;48.770;11.440;2024-02-15T00:30:05;97743.28;;;16.73;50.44
78073;BME280;67281;48.770;11.440;2024-02-15T00:36:29;97740.63;;;16.73;50.82
78073;BME280;67281;48.770;11.440;2024-02-15T00:39:06;97739.66;;;16.74;50.91
78073;BME280;67281;48.770;11.440;2024-02-15T00:44:42;97745.94;;;16.73;50.58
78073;BME280;67281;48.770;11.440;2024-02-15T00:47:53;97739.81;;;16.72;50.56
78073;BME280;67281;48.770;11.440;2024-02-15T00:50:10;97738.97;;;16.72;50.98
78073;BME280;67281;48.770;11.440;2024-02-15T00:52:54;97738.13;;;16.71;50.70
78073;BME280;67281;48.770;11.440;2024-02-15T00:56:47;97740.78;;;16.71;50.37
78073;BME280;67281;48.770;11.440;2024-02-15T00:58:49;97741.63;;;16.72;51.03
78073;BME280;67281;48.770;11.440;2024-02-15T01:01:55;97739.81;;;16.72;50.53
78073;BME280;67281;48.770;11.440;2024-02-15T01:04:47;97736.31;;;16.72;50.63
78073;BME280;67281;48.770;11.440;2024-02-15T01:07:21;97740.63;;;16.73;50.48
78073;BME280;67281;48.770;11.440;2024-02-15T01:10:14;97729.34;;;16.71;50.35
78073;BME280;67281;48.770;11.440;2024-02-15T01:13:06;97735.47;;;16.71;50.98
78073;BME280;67281;48.770;11.440;2024-02-15T01:15:57;97733.69;;;16.72;50.47
78073;BME280;67281;48.770;11.440;2024-02-15T01:18:43;97731.03;;;16.72;51.00
78073;BME280;67281;48.770;11.440;2024-02-15T01:21:29;97734.66;;;16.71;50.97
78073;BME280;67281;48.770;11.440;2024-02-15T01:24:00;97728.50;;;16.70;50.21
78073;BME280;67281;48.770;11.440;2024-02-15T01:26:34;97724.91;;;16.71;50.84
78073;BME280;67281;48.770;11.440;2024-02-15T01:29:36;97728.50;;;16.70;50.67
78073;BME280;67281;48.770;11.440;2024-02-15T01:32:11;97729.34;;;16.71;50.65
78073;BME280;67281;48.770;11.440;2024-02-15T01:35:25;97718.91;;;16.69;50.70
78073;BME280;67281;48.770;11.440;2024-02-15T01:37:56;97724.91;;;16.71;50.48
78073;BME280;67281;48.770;11.440;2024-02-15T01:40:30;97726.72;;;16.71;50.67
78073;BME280;67281;48.770;11.440;2024-02-15T01:43:12;97721.53;;;16.69;50.99
78073;BME280;67281;48.770;11.440;2024-02-15T01:52:55;97706.50;;;16.70;50.96
78073;BME280;67281;48.770;11.440;2024-02-15T01:55:28;97715.28;;;16.70;50.60
78073;BME280;67281;48.770;11.440;2024-02-15T01:58:01;97708.19;;;16.71;50.68
78073;BME280;67281;48.770;11.440;2024-02-15T02:00:41;97706.50;;;16.70;50.98
78073;BME280;67281;48.770;11.440;2024-02-15T02:06:47;97709.16;;;16.70;50.64
78073;BME280;67281;48.770;11.440;2024-02-15T02:12:22;97695.09;;;16.69;50.46
78073;BME280;67281;48.770;11.440;2024-02-15T02:15:10;97701.22;;;16.70;50.98
78073;BME280;67281;48.770;11.440;2024-02-15T02:17:42;97704.84;;;16.69;50.37
78073;BME280;67281;48.770;11.440;2024-02-15T02:23:35;97710.97;;;16.69;51.01
78073;BME280;67281;48.770;11.440;2024-02-15T02:26:09;97709.16;;;16.70;50.95
78073;BME280;67281;48.770;11.440;2024-02-15T02:29:07;97705.66;;;16.69;50.32
78073;BME280;67281;48.770;11.440;2024-02-15T02:31:57;97701.34;;;16.68;50.70
78073;BME280;67281;48.770;11.440;2024-02-15T02:34:41;97702.19;;;16.69;50.69
78073;BME280;67281;48.770;11.440;2024-02-15T02:37:17;97696.91;;;16.69;50.72
78073;BME280;67281;48.770;11.440;2024-02-15T02:40:50;97700.38;;;16.69;50.33
78073;BME280;67281;48.770;11.440;2024-02-15T02:43:22;97694.25;;;16.69;50.68
78073;BME280;67281;48.770;11.440;2024-02-15T02:46:16;97689.09;;;16.67;50.99
78073;BME280;67281;48.770;11.440;2024-02-15T02:49:08;97691.59;;;16.69;50.98
78073;BME280;67281;48.770;11.440;2024-02-15T02:51:39;97689.78;;;16.69;51.00
78073;BME280;67281;48.770;11.440;2024-02-15T02:54:13;97692.44;;;16.69;50.99
78073;BME280;67281;48.770;11.440;2024-02-15T02:57:07;97678.63;;;16.66;50.47
78073;BME280;67281;48.770;11.440;2024-02-15T02:59:44;97691.72;;;16.67;50.70
78073;BME280;67281;48.770;11.440;2024-02-15T03:02:18;97697.03;;;16.67;50.68
78073;BME280;67281;48.770;11.440;2024-02-15T03:08:27;97696.19;;;16.67;50.32
78073;BME280;67281;48.770;11.440;2024-02-15T03:11:15;97686.44;;;16.67;50.78
78073;BME280;67281;48.770;11.440;2024-02-15T03:14:20;97697.88;;;16.68;50.97
78073;BME280;67281;48.770;11.440;2024-02-15T03:16:55;97679.47;;;16.66;50.57
78073;BME280;67281;48.770;11.440;2024-02-15T03:19:42;97689.22;;;16.66;50.66
78073;BME280;67281;48.770;11.440;2024-02-15T03:22:15;97685.59;;;16.67;50.71
78073;BME280;67281;48.770;11.440;2024-02-15T03:25:02;97680.31;;;16.67;50.41
78073;BME280;67281;48.770;11.440;2024-02-15T03:27:36;97690.06;;;16.66;50.34
78073;BME280;67281;48.770;11.440;2024-02-15T03:30:12;97684.75;;;16.66;50.41
78073;BME280;67281;48.770;11.440;2024-02-15T03:33:00;97684.75;;;16.66;50.43
78073;BME280;67281;48.770;11.440;2024-02-15T03:36:04;97690.91;;;16.67;51.05
78073;BME280;67281;48.770;11.440;2024-02-15T03:38:36;97684.91;;;16.65;51.02
78073;BME280;67281;48.770;11.440;2024-02-15T03:41:11;97690.06;;;16.66;50.31
78073;BME280;67281;48.770;11.440;2024-02-15T03:44:17;97687.53;;;16.65;50.77
78073;BME280;67281;48.770;11.440;2024-02-15T03:47:02;97691.03;;;16.65;50.71
78073;BME280;67281;48.770;11.440;2024-02-15T03:56:01;97697.03;;;16.67;50.38
78073;BME280;67281;48.770;11.440;2024-02-15T03:58:44;97705.09;;;16.66;50.72
78073;BME280;67281;48.770;11.440;2024-02-15T04:01:18;97701.63;;;16.65;51.08
78073;BME280;67281;48.770;11.440;2024-02-15T04:03:49;97699.06;;;16.64;50.92
78073;BME280;67281;48.770;11.440;2024-02-15T04:06:25;97704.38;;;16.64;50.78
78073;BME280;67281;48.770;11.440;2024-02-15T04:09:05;97702.69;;;16.63;50.44
78073;BME280;67281;48.770;11.440;2024-02-15T04:11:49;97702.81;;;16.61;50.42
78073;BME280;67281;48.770;11.440;2024-02-15T04:14:22;97704.63;;;16.61;50.46
78073;BME280;67281;48.770;11.440;2024-02-15T04:16:55;97701.97;;;16.61;50.76
78073;BME280;67281;48.770;11.440;2024-02-15T04:19:28;97704.75;;;16.59;51.11
78073;BME280;67281;48.770;11.440;2024-02-15T04:21:59;97703.94;;;16.59;51.17
78073;BME280;67281;48.770;11.440;2024-02-15T04:24:35;97694.31;;;16.58;50.87
78073;BME280;67281;48.770;11.440;2024-02-15T04:30:03;97695.28;;;16.57;51.06
78073;BME280;67281;48.770;11.440;2024-02-15T04:32:45;97702.25;;;16.58;51.07
78073;BME280;67281;48.770;11.440;2024-02-15T04:35:27;97697.94;;;16.57;50.84
78073;BME280;67281;48.770;11.440;2024-02-15T04:41:10;97700.56;;;16.57;50.42
78073;BME280;67281;48.770;11.440;2024-02-15T04:44:12;97693.47;;;16.57;50.35
78073;BME280;67281;48.770;11.440;2024-02-15T04:47:05;97683.03;;;16.56;50.37
78073;BME280;67281;48.770;11.440;2024-02-15T04:49:47;97689.28;;;16.55;50.69
78073;BME280;67281;48.770;11.440;2024-02-15T04:55:34;97692.78;;;16.55;50.72
78073;BME280;67281;48.770;11.440;2024-02-15T04:58:12;97690.25;;;16.54;50.39
78073;BME280;67281;48.770;11.440;2024-02-15T05:00:43;97684.97;;;16.54;50.57
78073;BME280;67281;48.770;11.440;2024-02-15T05:03:17;97687.63;;;16.54;50.68
78073;BME280;67281;48.770;11.440;2024-02-15T05:06:04;97689.41;;;16.53;50.66
78073;BME280;67281;48.770;11.440;2024-02-15T05:08:37;97684.13;;;16.53;50.88
78073;BME280;67281;48.770;11.440;2024-02-15T05:11:30;97687.63;;;16.54;50.34
78073;BME280;67281;48.770;11.440;2024-02-15T05:14:03;97678.00;;;16.53;50.89
78073;BME280;67281;48.770;11.440;2024-02-15T05:16:44;97672.72;;;16.53;50.87
78073;BME280;67281;48.770;11.440;2024-02-15T05:19:40;97672.84;;;16.51;51.08
78073;BME280;67281;48.770;11.440;2024-02-15T05:31:56;97678.13;;;16.51;50.29
78073;BME280;67281;48.770;11.440;2024-02-15T05:38:00;97679.94;;;16.51;50.63
78073;BME280;67281;48.770;11.440;2024-02-15T05:43:56;97695.81;;;16.51;51.09
78073;BME280;67281;48.770;11.440;2024-02-15T05:46:40;97680.91;;;16.50;50.24
78073;BME280;67281;48.770;11.440;2024-02-15T05:49:24;97691.50;;;16.50;50.80
78073;BME280;67281;48.770;11.440;2024-02-15T05:52:25;97693.16;;;16.51;50.64
78073;BME280;67281;48.770;11.440;2024-02-15T05:55:21;97703.75;;;16.51;50.23
78073;BME280;67281;48.770;11.440;2024-02-15T05:57:55;97699.44;;;16.50;50.98
78073;BME280;67281;48.770;11.440;2024-02-15T06:01:22;97694.97;;;16.50;50.58
78073;BME280;67281;48.770;11.440;2024-02-15T06:04:37;97710.00;;;16.50;50.27
78073;BME280;67281;48.770;11.440;2024-02-15T06:06:57;97697.75;;;16.49;50.64
78073;BME280;67281;48.770;11.440;2024-02-15T06:12:53;97703.03;;;16.49;50.36
78073;BME280;67281;48.770;11.440;2024-02-15T06:16:11;97713.63;;;16.49;50.38
78073;BME280;67281;48.770;11.440;2024-02-15T06:18:55;97706.66;;;16.48;50.82
78073;BME280;67281;48.770;11.440;2024-02-15T06:25:20;97718.06;;;16.48;50.68
78073;BME280;67281;48.770;11.440;2024-02-15T06:28:27;97717.25;;;16.48;50.94
78073;BME280;67281;48.770;11.440;2024-02-15T06:34:53;97712.78;;;16.48;50.60
78073;BME280;67281;48.770;11.440;2024-02-15T06:37:54;97723.38;;;16.48;50.59
78073;BME280;67281;48.770;11.440;2024-02-15T06:44:23;97717.13;;;16.49;50.91
78073;BME280;67281;48.770;11.440;2024-02-15T06:47:25;97725.88;;;16.50;50.50
78073;BME280;67281;48.770;11.440;2024-02-15T06:50:25;97721.56;;;16.49;51.04
78073;BME280;67281;48.770;11.440;2024-02-15T06:56:27;97725.88;;;16.50;50.69
78073;BME280;67281;48.770;11.440;2024-02-15T07:06:02;97711.81;;;16.49;50.60
78073;BME280;67281;48.770;11.440;2024-02-15T07:08:41;97715.44;;;16.48;51.04
78073;BME280;67281;48.770;11.440;2024-02-15T07:11:18;97716.13;;;16.50;50.87
78073;BME280;67281;48.770;11.440;2024-02-15T07:14:00;97708.06;;;16.52;50.38
78073;BME280;67281;48.770;11.440;2024-02-15T07:16:40;97705.44;;;16.52;50.77
78073;BME280;67281;48.770;11.440;2024-02-15T07:19:33;97703.75;;;16.51;50.89
78073;BME280;67281;48.770;11.440;2024-02-15T07:23:49;97708.91;;;16.52;50.74
78073;BME280;67281;48.770;11.440;2024-02-15T07:25:49;97704.47;;;16.53;50.50
78073;BME280;67281;48.770;11.440;2024-02-15T07:28:42;97707.09;;;16.53;50.55
78073;BME280;67281;48.770;11.440;2024-02-15T07:31:47;97708.78;;;16.54;50.87
78073;BME280;67281;48.770;11.440;2024-02-15T07:34:47;97703.34;;;16.55;50.05
78073;BME280;67281;48.770;11.440;2024-02-15T07:37:55;97714.91;;;16.54;50.56
78073;BME280;67281;48.770;11.440;2024-02-15T07:40:57;97712.13;;;16.56;50.22
78073;BME280;67281;48.770;11.440;2024-02-15T07:43:30;97716.44;;;16.57;50.49
78073;BME280;67281;48.770;11.440;2024-02-15T07:46:22;97709.34;;;16.57;50.07
78073;BME280;67281;48.770;11.440;2024-02-15T07:48:53;97705.88;;;16.57;50.81
78073;BME280;67281;48.770;11.440;2024-02-15T07:51:28;97709.22;;;16.59;50.78
78073;BME280;67281;48.770;11.440;2024-02-15T07:54:23;97712.84;;;16.58;50.54
78073;BME280;67281;48.770;11.440;2024-02-15T07:56:56;97714.63;;;16.57;50.89
78073;BME280;67281;48.770;11.440;2024-02-15T07:59:48;97718.69;;;16.61;50.87
78073;BME280;67281;48.770;11.440;2024-02-15T08:02:20;97713.28;;;16.63;50.58
78073;BME280;67281;48.770;11.440;2024-02-15T08:05:10;97709.56;;;16.65;50.13
78073;BME280;67281;48.770;11.440;2024-02-15T08:07:43;97709.56;;;16.65;50.82
78073;BME280;67281;48.770;11.440;2024-02-15T08:10:17;97706.06;;;16.65;50.10
78073;BME280;67281;48.770;11.440;2024-02-15T08:12:47;97714.09;;;16.63;50.11
78073;BME280;67281;48.770;11.440;2024-02-15T08:15:20;97706.78;;;16.67;50.37
78073;BME280;67281;48.770;11.440;2024-02-15T08:17:51;97699.66;;;16.67;50.67
78073;BME280;67281;48.770;11.440;2024-02-15T08:20:23;97696.19;;;16.67;50.67
78073;BME280;67281;48.770;11.440;2024-02-15T08:22:53;97703.84;;;16.70;50.60
78073;BME280;67281;48.770;11.440;2024-02-15T08:25:25;97697.31;;;16.74;50.48
78073;BME280;67281;48.770;11.440;2024-02-15T08:27:56;97694.53;;;16.75;50.56
78073;BME280;67281;48.770;11.440;2024-02-15T08:30:32;97692.59;;;16.78;50.15
78073;BME280;67281;48.770;11.440;2024-02-15T08:33:04;97680.91;;;16.80;50.52
78073;BME280;67281;48.770;11.440;2024-02-15T08:35:34;97675.34;;;16.83;50.06
78073;BME280;67281;48.770;11.440;2024-02-15T08:38:07;97672.84;;;16.82;49.73
78073;BME280;67281;48.770;11.440;2024-02-15T08:40:40;97680.63;;;16.83;50.13
78073;BME280;67281;48.770;11.440;2024-02-15T08:43:12;97676.19;;;16.84;50.17
78073;BME280;67281;48.770;11.440;2024-02-15T08:45:44;97673.41;;;16.85;50.48
78073;BME280;67281;48.770;11.440;2024-02-15T08:48:15;97678.44;;;16.88;50.44
78073;BME280;67281;48.770;11.440;2024-02-15T08:50:45;97680.09;;;16.89;50.33
78073;BME280;67281;48.770;11.440;2024-02-15T08:53:16;97680.94;;;16.90;49.84
78073;BME280;67281;48.770;11.440;2024-02-15T08:55:49;97679.00;;;16.92;49.91
78073;BME280;67281;48.770;11.440;2024-02-15T08:58:20;97680.38;;;16.96;49.92
78073;BME280;67281;48.770;11.440;2024-02-15T09:00:50;97675.81;;;16.98;49.96
78073;BME280;67281;48.770;11.440;2024-02-15T09:03:21;97675.53;;;17.01;50.28
78073;BME280;67281;48.770;11.440;2024-02-15T09:05:52;97673.56;;;17.03;49.86
78073;BME280;67281;48.770;11.440;2024-02-15T09:08:22;97677.63;;;17.07;49.63
78073;BME280;67281;48.770;11.440;2024-02-15T09:10:55;97675.81;;;17.07;49.85
78073;BME280;67281;48.770;11.440;2024-02-15T09:13:25;97677.47;;;17.08;49.89
78073;BME280;67281;48.770;11.440;2024-02-15T09:18:14;97666.88;;;17.08;49.81
78073;BME280;67281;48.770;11.440;2024-02-15T09:20:46;97668.84;;;17.06;50.11
78073;BME280;67281;48.770;11.440;2024-02-15T09:23:23;97672.03;;;17.10;49.86
78073;BME280;67281;48.770;11.440;2024-02-15T09:25:53;97664.66;;;17.14;49.41
78073;BME280;67281;48.770;11.440;2024-02-15T09:28:24;97658.94;;;17.18;49.54
78073;BME280;67281;48.770;11.440;2024-02-15T09:30:54;97648.06;;;17.21;49.48
78073;BME280;67281;48.770;11.440;2024-02-15T09:33:29;97647.78;;;17.24;49.71
78073;BME280;67281;48.770;11.440;2024-02-15T09:36:00;97648.34;;;17.28;49.62
78073;BME280;67281;48.770;11.440;2024-02-15T09:38:30;97656.00;;;17.31;49.80
78073;BME280;67281;48.770;11.440;2024-02-15T09:41:01;97647.09;;;17.32;49.63
78073;BME280;67281;48.770;11.440;2024-02-15T09:43:35;97642.22;;;17.37;49.48
78073;BME280;67281;48.770;11.440;2024-02-15T09:46:05;97647.50;;;17.37;49.81
78073;BME280;67281;48.770;11.440;2024-02-15T09:48:39;97642.22;;;17.37;49.19
78073;BME280;67281;48.770;11.440;2024-02-15T09:51:12;97646.41;;;17.39;48.98
78073;BME280;67281;48.770;11.440;2024-02-15T09:53:43;97647.09;;;17.41;49.22
78073;BME280;67281;48.770;11.440;2024-02-15T09:56:15;97639.97;;;17.42;49.10
78073;BME280;67281;48.770;11.440;2024-02-15T09:58:46;97641.66;;;17.43;49.52
78073;BME280;67281;48.770;11.440;2024-02-15T10:01:20;97637.75;;;17.47;49.42
78073;BME280;67281;48.770;11.440;2024-02-15T10:03:55;97636.34;;;17.53;49.29
78073;BME280;67281;48.770;11.440;2024-02-15T10:06:26;97633.56;;;17.54;49.27
78073;BME280;67281;48.770;11.440;2024-02-15T10:09:24;97641.91;;;17.59;48.78
78073;BME280;67281;48.770;11.440;2024-02-15T10:11:58;97635.38;;;17.63;48.56
78073;BME280;67281;48.770;11.440;2024-02-15T10:14:30;97640.13;;;17.69;48.63
78073;BME280;67281;48.770;11.440;2024-02-15T10:17:06;97636.78;;;17.77;48.61
78073;BME280;67281;48.770;11.440;2024-02-15T10:19:41;97631.28;;;17.88;48.01
78073;BME280;67281;48.770;11.440;2024-02-15T10:22:12;97633.06;;;17.97;49.39
78073;BME280;67281;48.770;11.440;2024-02-15T10:24:43;97627.31;;;18.12;49.74
78073;BME280;67281;48.770;11.440;2024-02-15T10:27:23;97616.91;;;18.28;50.73
78073;BME280;67281;48.770;11.440;2024-02-15T10:29:56;97615.75;;;18.40;50.46
78073;BME280;67281;48.770;11.440;2024-02-15T10:32:44;97614.13;;;18.57;51.38
78073;BME280;67281;48.770;11.440;2024-02-15T10:35:22;97606.44;;;18.54;51.00
78073;BME280;67281;48.770;11.440;2024-02-15T10:37:52;97601.66;;;18.57;50.82
78073;BME280;67281;48.770;11.440;2024-02-15T10:40:35;97600.41;;;18.61;50.07
78073;BME280;67281;48.770;11.440;2024-02-15T10:43:06;97604.72;;;18.62;49.87
78073;BME280;67281;48.770;11.440;2024-02-15T10:45:37;97598.81;;;18.68;50.51
78073;BME280;67281;48.770;11.440;2024-02-15T10:48:09;97603.53;;;18.75;50.33
78073;BME280;67281;48.770;11.440;2024-02-15T10:50:45;97599.59;;;18.79;49.83
78073;BME280;67281;48.770;11.440;2024-02-15T10:53:21;97590.66;;;18.80;50.54
78073;BME280;67281;48.770;11.440;2024-02-15T10:55:57;97598.75;;;18.78;50.01
78073;BME280;67281;48.770;11.440;2024-02-15T10:58:32;97583.81;;;18.77;50.03
78073;BME280;67281;48.770;11.440;2024-02-15T11:01:06;97576.53;;;18.79;49.64
78073;BME280;67281;48.770;11.440;2024-02-15T11:03:44;97578.50;;;18.77;49.32
78073;BME280;67281;48.770;11.440;2024-02-15T11:06:27;97581.47;;;18.74;50.08
78073;BME280;67281;48.770;11.440;2024-02-15T11:08:57;97568.63;;;18.69;49.58
78073;BME280;67281;48.770;11.440;2024-02-15T11:11:29;97576.06;;;18.66;49.83
78073;BME280;67281;48.770;11.440;2024-02-15T11:14:28;97560.13;;;18.66;49.56
78073;BME280;67281;48.770;11.440;2024-02-15T11:17:00;97568.94;;;18.66;49.43
78073;BME280;67281;48.770;11.440;2024-02-15T11:19:41;97562.66;;;18.67;49.69
78073;BME280;67281;48.770;11.440;2024-02-15T11:22:16;97550.06;;;18.69;49.79
78073;BME280;67281;48.770;11.440;2024-02-15T11:24:48;97554.91;;;18.74;49.68
78073;BME280;67281;48.770;11.440;2024-02-15T11:27:26;97554.63;;;18.77;49.62
78073;BME280;67281;48.770;11.440;2024-02-15T11:29:57;97542.03;;;18.79;49.63
78073;BME280;67281;48.770;11.440;2024-02-15T11:32:35;97540.06;;;18.81;49.16
78073;BME280;67281;48.770;11.440;2024-02-15T11:35:08;97535.28;;;18.85;49.55
78073;BME280;67281;48.770;11.440;2024-02-15T11:37:52;97538.47;;;18.88;49.18
78073;BME280;67281;48.770;11.440;2024-02-15T11:40:24;97535.66;;;18.90;49.11
78073;BME280;67281;48.770;11.440;2024-02-15T11:43:00;97535.34;;;18.93;49.57
78073;BME280;67281;48.770;11.440;2024-02-15T11:45:31;97527.06;;;18.96;49.55
78073;BME280;67281;48.770;11.440;2024-02-15T11:48:08;97522.28;;;18.99;49.08
78073;BME280;67281;48.770;11.440;2024-02-15T11:50:41;97519.34;;;19.02;49.29
78073;BME280;67281;48.770;11.440;2024-02-15T11:53:14;97508.88;;;19.01;48.51
78073;BME280;67281;48.770;11.440;2024-02-15T11:55:45;97508.88;;;19.01;49.69
78073;BME280;67281;48.770;11.440;2024-02-15T11:58:16;97509.38;;;19.04;49.56
78073;BME280;67281;48.770;11.440;2024-02-15T12:00:59;97505.75;;;19.06;48.63
78073;BME280;67281;48.770;11.440;2024-02-15T12:03:42;97500.28;;;19.07;49.36
78073;BME280;67281;48.770;11.440;2024-02-15T12:06:33;97499.28;;;19.08;49.00
78073;BME280;67281;48.770;11.440;2024-02-15T12:09:20;97490.50;;;19.08;48.59
78073;BME280;67281;48.770;11.440;2024-02-15T12:12:04;97496.31;;;19.11;49.00
78073;BME280;67281;48.770;11.440;2024-02-15T12:14:47;97495.19;;;19.14;49.17
78073;BME280;67281;48.770;11.440;2024-02-15T12:17:38;97492.53;;;19.14;49.19
78073;BME280;67281;48.770;11.440;2024-02-15T12:20:22;97494.19;;;19.15;49.03
78073;BME280;67281;48.770;11.440;2024-02-15T12:22:55;97481.91;;;19.14;48.66
78073;BME280;67281;48.770;11.440;2024-02-15T12:25:28;97483.56;;;19.15;48.92
78073;BME280;67281;48.770;11.440;2024-02-15T12:28:01;97485.25;;;19.16;48.48
78073;BME280;67281;48.770;11.440;2024-02-15T12:30:34;97482.44;;;19.17;48.62
78073;BME280;67281;48.770;11.440;2024-02-15T12:33:11;97488.56;;;19.18;48.55
78073;BME280;67281;48.770;11.440;2024-02-15T12:35:48;97478.25;;;19.15;48.76
78073;BME280;67281;48.770;11.440;2024-02-15T12:38:18;97476.59;;;19.14;49.11
78073;BME280;67281;48.770;11.440;2024-02-15T12:40:51;97468.78;;;19.12;48.91
78073;BME280;67281;48.770;11.440;2024-02-15T12:43:21;97468.94;;;19.11;48.90
78073;BME280;67281;48.770;11.440;2024-02-15T12:45:53;97468.09;;;19.10;48.68
78073;BME280;67281;48.770;11.440;2024-02-15T12:48:24;97460.13;;;19.10;48.87
78073;BME280;67281;48.770;11.440;2024-02-15T12:50:55;97459.28;;;19.10;48.87
78073;BME280;67281;48.770;11.440;2024-02-15T12:53:25;97454.66;;;19.12;48.54
78073;BME280;67281;48.770;11.440;2024-02-15T12:55:58;97446.38;;;19.15;48.68
78073;BME280;67281;48.770;11.440;2024-02-15T12:58:28;97448.56;;;19.19;48.38
78073;BME280;67281;48.770;11.440;2024-02-15T13:00:58;97443.94;;;19.21;48.95
78073;BME280;67281;48.770;11.440;2024-02-15T13:03:29;97438.47;;;19.23;48.49
78073;BME280;67281;48.770;11.440;2024-02-15T13:05:59;97431.31;;;19.23;48.12
78073;BME280;67281;48.770;11.440;2024-02-15T13:08:30;97433.16;;;19.23;48.56
78073;BME280;67281;48.770;11.440;2024-02-15T13:11:04;97435.13;;;19.21;48.57
78073;BME280;67281;48.770;11.440;2024-02-15T13:13:36;97433.47;;;19.20;48.79
78073;BME280;67281;48.770;11.440;2024-02-15T13:16:08;97432.47;;;19.21;48.89
78073;BME280;67281;48.770;11.440;2024-02-15T13:18:38;97433.31;;;19.21;48.91
78073;BME280;67281;48.770;11.440;2024-02-15T13:21:08;97429.66;;;19.22;48.81
78073;BME280;67281;48.770;11.440;2024-02-15T13:23:39;97421.69;;;19.22;48.50
78073;BME280;67281;48.770;11.440;2024-02-15T13:26:12;97417.72;;;19.26;48.78
78073;BME280;67281;48.770;11.440;2024-02-15T13:28:42;97412.25;;;19.28;48.30
78073;BME280;67281;48.770;11.440;2024-02-15T13:31:12;97404.28;;;19.28;48.07
78073;BME280;67281;48.770;11.440;2024-02-15T13:33:42;97409.59;;;19.28;48.60
78073;BME280;67281;48.770;11.440;2024-02-15T13:36:14;97407.63;;;19.30;48.02
78073;BME280;67281;48.770;11.440;2024-02-15T13:38:47;97402.47;;;19.28;48.18
78073;BME280;67281;48.770;11.440;2024-02-15T13:41:21;97407.25;;;19.25;48.70
78073;BME280;67281;48.770;11.440;2024-02-15T13:43:51;97407.56;;;19.22;48.41
78073;BME280;67281;48.770;11.440;2024-02-15T13:46:22;97398.94;;;19.20;48.26
78073;BME280;67281;48.770;11.440;2024-02-15T13:48:52;97407.22;;;19.17;48.38
78073;BME280;67281;48.770;11.440;2024-02-15T13:51:23;97405.53;;;19.16;49.02
78073;BME280;67281;48.770;11.440;2024-02-15T13:53:54;97401.91;;;19.17;48.44
78073;BME280;67281;48.770;11.440;2024-02-15T13:56:28;97398.41;;;19.16;48.82
78073;BME280;67281;48.770;11.440;2024-02-15T13:58:58;97404.72;;;19.15;48.96
78073;BME280;67281;48.770;11.440;2024-02-15T14:01:32;97399.41;;;19.15;48.83
78073;BME280;67281;48.770;11.440;2024-02-15T14:04:10;97394.25;;;19.14;48.56
78073;BME280;67281;48.770;11.440;2024-02-15T14:06:40;97389.59;;;19.16;48.52
78073;BME280;67281;48.770;11.440;2024-02-15T14:09:11;97388.78;;;19.15;48.72
78073;BME280;67281;48.770;11.440;2024-02-15T14:11:44;97389.75;;;19.14;49.11
78073;BME280;67281;48.770;11.440;2024-02-15T14:14:15;97381.63;;;19.16;48.90
78073;BME280;67281;48.770;11.440;2024-02-15T14:16:45;97382.47;;;19.16;48.86
78073;BME280;67281;48.770;11.440;2024-02-15T14:19:15;97385.13;;;19.16;48.56
78073;BME280;67281;48.770;11.440;2024-02-15T14:21:45;97381.47;;;19.17;48.60
78073;BME280;67281;48.770;11.440;2024-02-15T14:24:15;97377.81;;;19.18;49.10
78073;BME280;67281;48.770;11.440;2024-02-15T14:26:49;97371.53;;;19.19;48.38
78073;BME280;67281;48.770;11.440;2024-02-15T14:29:19;97376.69;;;19.21;49.05
78073;BME280;67281;48.770;11.440;2024-02-15T14:31:53;97378.34;;;19.22;48.68
78073;BME280;67281;48.770;11.440;2024-02-15T14:34:35;97360.75;;;19.21;48.54
78073;BME280;67281;48.770;11.440;2024-02-15T14:37:08;97372.03;;;19.23;48.76
78073;BME280;67281;48.770;11.440;2024-02-15T14:39:38;97372.03;;;19.23;48.48
78073;BME280;67281;48.770;11.440;2024-02-15T14:42:12;97372.03;;;19.23;48.60
78073;BME280;67281;48.770;11.440;2024-02-15T14:44:45;97360.44;;;19.24;48.77
78073;BME280;67281;48.770;11.440;2024-02-15T14:47:15;97363.91;;;19.24;48.91
78073;BME280;67281;48.770;11.440;2024-02-15T14:49:45;97364.75;;;19.25;48.73
78073;BME280;67281;48.770;11.440;2024-02-15T14:52:15;97356.63;;;19.26;48.75
78073;BME280;67281;48.770;11.440;2024-02-15T14:54:45;97359.28;;;19.26;48.75
78073;BME280;67281;48.770;11.440;2024-02-15T14:57:18;97361.09;;;19.26;48.53
78073;BME280;67281;48.770;11.440;2024-02-15T14:59:50;97355.78;;;19.26;48.76
78073;BME280;67281;48.770;11.440;2024-02-15T15:02:21;97362.75;;;19.27;48.78
78073;BME280;67281;48.770;11.440;2024-02-15T15:04:51;97361.78;;;19.28;48.54
78073;BME280;67281;48.770;11.440;2024-02-15T15:07:47;97362.09;;;19.33;49.03
78073;BME280;67281;48.770;11.440;2024-02-15T15:10:29;97359.44;;;19.33;48.73
78073;BME280;67281;48.770;11.440;2024-02-15T15:13:15;97354.81;;;19.35;48.67
78073;BME280;67281;48.770;11.440;2024-02-15T15:15:46;97355.78;;;19.34;48.42
78073;BME280;67281;48.770;11.440;2024-02-15T15:18:16;97357.63;;;19.33;49.00
78073;BME280;67281;48.770;11.440;2024-02-15T15:20:48;97356.78;;;19.33;48.76